sensor_id;sensor_type;location;lat;lon;timestamp;temperature;humidity
14277;DHT22;7222;57.346;12.150;2023-01-10T00:02:06;6.50;99.90
14277;DHT22;7222;57.346;12.150;2023-01-10T00:04:33;6.40;99.90
14277;DHT22;7222;57.346;12.150;2023-01-10T00:07:00;6.40;99.90
14277;DHT22;7222;57.346;12.150;2023-01-10T00:09:28;6.40;99.90
14277;DHT22;7222;57.346;12.150;2023-01-10T00:11:55;6.50;99.90
14277;DHT22;7222;57.346;12.150;2023-01-10T00:14:41;6.50;99.90
14277;DHT22;7222;57.346;12.150;2023-01-10T00:17:08;6.40;99.90
14277;DHT22;7222;57.346;12.150;2023-01-10T00:19:35;6.40;99.90
14277;DHT22;7222;57.346;12.150;2023-01-10T00:22:02;6.40;99.90
14277;DHT22;7222;57.346;12.150;2023-01-10T00:24:38;6.40;99.90
14277;DHT22;7222;57.346;12.150;2023-01-10T00:27:06;6.40;99.90
14277;DHT22;7222;57.346;12.150;2023-01-10T00:29:37;6.50;99.90
14277;DHT22;7222;57.346;12.150;2023-01-10T00:32:06;6.50;99.90
14277;DHT22;7222;57.346;12.150;2023-01-10T00:34:33;6.50;99.90
14277;DHT22;7222;57.346;12.150;2023-01-10T00:37:01;6.50;99.90
14277;DHT22;7222;57.346;12.150;2023-01-10T00:39:28;6.50;99.90
14277;DHT22;7222;57.346;12.150;2023-01-10T00:41:56;6.40;99.90
14277;DHT22;7222;57.346;12.150;2023-01-10T00:44:40;6.50;99.90
14277;DHT22;7222;57.346;12.150;2023-01-10T00:47:08;6.40;99.90
14277;DHT22;7222;57.346;12.150;2023-01-10T00:49:35;6.50;99.90
14277;DHT22;7222;57.346;12.150;2023-01-10T00:52:03;6.50;99.90
14277;DHT22;7222;57.346;12.150;2023-01-10T00:54:30;6.40;99.90
14277;DHT22;7222;57.346;12.150;2023-01-10T00:56:58;6.40;99.90
14277;DHT22;7222;57.346;12.150;2023-01-10T00:59:25;6.50;99.90
14277;DHT22;7222;57.346;12.150;2023-01-10T01:01:53;6.40;99.90
14277;DHT22;7222;57.346;12.150;2023-01-10T01:04:23;6.50;99.90
14277;DHT22;7222;57.346;12.150;2023-01-10T01:06:50;6.40;99.90
14277;DHT22;7222;57.346;12.150;2023-01-10T01:09:17;6.40;99.90
14277;DHT22;7222;57.346;12.150;2023-01-10T01:11:44;6.40;99.90
14277;DHT22;7222;57.346;12.150;2023-01-10T01:14:11;6.40;99.90
14277;DHT22;7222;57.346;12.150;2023-01-10T01:16:39;6.50;99.90
14277;DHT22;7222;57.346;12.150;2023-01-10T01:19:06;6.50;99.90
14277;DHT22;7222;57.346;12.150;2023-01-10T01:21:34;6.50;99.90
14277;DHT22;7222;57.346;12.150;2023-01-10T01:24:01;6.40;99.90
14277;DHT22;7222;57.346;12.150;2023-01-10T01:26:29;6.50;99.90
14277;DHT22;7222;57.346;12.150;2023-01-10T01:28:55;6.50;99.90
14277;DHT22;7222;57.346;12.150;2023-01-10T01:31:22;6.50;99.90
14277;DHT22;7222;57.346;12.150;2023-01-10T01:33:49;6.50;99.90
14277;DHT22;7222;57.346;12.150;2023-01-10T01:36:16;6.40;99.90
14277;DHT22;7222;57.346;12.150;2023-01-10T01:38:46;6.40;99.90
14277;DHT22;7222;57.346;12.150;2023-01-10T01:41:13;6.40;99.90
14277;DHT22;7222;57.346;12.150;2023-01-10T01:44:01;6.40;99.90
14277;DHT22;7222;57.346;12.150;2023-01-10T01:46:28;6.50;99.90
14277;DHT22;7222;57.346;12.150;2023-01-10T01:48:56;6.40;99.90
14277;DHT22;7222;57.346;12.150;2023-01-10T01:51:25;6.40;99.90
14277;DHT22;7222;57.346;12.150;2023-01-10T01:53:57;6.40;99.90
14277;DHT22;7222;57.346;12.150;2023-01-10T01:56:26;6.40;99.90
14277;DHT22;7222;57.346;12.150;2023-01-10T01:58:58;6.50;99.90
14277;DHT22;7222;57.346;12.150;2023-01-10T02:01:27;6.40;99.90
14277;DHT22;7222;57.346;12.150;2023-01-10T02:03:59;6.50;99.90
14277;DHT22;7222;57.346;12.150;2023-01-10T02:06:27;6.50;99.90
14277;DHT22;7222;57.346;12.150;2023-01-10T02:09:01;6.40;99.90
14277;DHT22;7222;57.346;12.150;2023-01-10T02:11:29;6.40;99.90
14277;DHT22;7222;57.346;12.150;2023-01-10T02:13:57;6.50;99.90
14277;DHT22;7222;57.346;12.150;2023-01-10T02:16:24;6.50;99.90
14277;DHT22;7222;57.346;12.150;2023-01-10T02:18:52;6.50;99.90
14277;DHT22;7222;57.346;12.150;2023-01-10T02:21:36;6.50;99.90
14277;DHT22;7222;57.346;12.150;2023-01-10T02:24:38;6.40;99.90
14277;DHT22;7222;57.346;12.150;2023-01-10T02:27:20;6.40;99.90
14277;DHT22;7222;57.346;12.150;2023-01-10T02:30:22;6.50;99.90
14277;DHT22;7222;57.346;12.150;2023-01-10T02:32:59;6.40;99.90
14277;DHT22;7222;57.346;12.150;2023-01-10T02:35:53;6.40;99.90
14277;DHT22;7222;57.346;12.150;2023-01-10T02:38:33;6.40;99.90
14277;DHT22;7222;57.346;12.150;2023-01-10T02:41:05;6.40;99.90
14277;DHT22;7222;57.346;12.150;2023-01-10T02:43:38;6.40;99.90
14277;DHT22;7222;57.346;12.150;2023-01-10T02:46:12;6.40;99.90
14277;DHT22;7222;57.346;12.150;2023-01-10T02:48:42;6.40;99.90
14277;DHT22;7222;57.346;12.150;2023-01-10T02:51:15;6.40;99.90
14277;DHT22;7222;57.346;12.150;2023-01-10T02:53:46;6.40;99.90
14277;DHT22;7222;57.346;12.150;2023-01-10T02:56:38;6.40;99.90
14277;DHT22;7222;57.346;12.150;2023-01-10T03:02:23;6.40;99.90
14277;DHT22;7222;57.346;12.150;2023-01-10T03:05:03;6.40;99.90
14277;DHT22;7222;57.346;12.150;2023-01-10T03:07:37;6.30;99.90
14277;DHT22;7222;57.346;12.150;2023-01-10T03:10:09;6.40;99.90
14277;DHT22;7222;57.346;12.150;2023-01-10T03:12:42;6.40;99.90
14277;DHT22;7222;57.346;12.150;2023-01-10T03:15:12;6.40;99.90
14277;DHT22;7222;57.346;12.150;2023-01-10T03:17:42;6.40;99.90
14277;DHT22;7222;57.346;12.150;2023-01-10T03:20:13;6.40;99.90
14277;DHT22;7222;57.346;12.150;2023-01-10T03:22:44;6.40;99.90
14277;DHT22;7222;57.346;12.150;2023-01-10T03:25:14;6.40;99.90
14277;DHT22;7222;57.346;12.150;2023-01-10T03:27:47;6.40;99.90
14277;DHT22;7222;57.346;12.150;2023-01-10T03:30:25;6.40;99.90
14277;DHT22;7222;57.346;12.150;2023-01-10T03:32:55;6.40;99.90
14277;DHT22;7222;57.346;12.150;2023-01-10T03:35:31;6.30;99.90
14277;DHT22;7222;57.346;12.150;2023-01-10T03:38:06;6.40;99.90
14277;DHT22;7222;57.346;12.150;2023-01-10T03:40:42;6.30;99.90
14277;DHT22;7222;57.346;12.150;2023-01-10T03:43:15;6.30;99.90
14277;DHT22;7222;57.346;12.150;2023-01-10T03:46:03;6.30;99.90
14277;DHT22;7222;57.346;12.150;2023-01-10T03:48:35;6.40;99.90
14277;DHT22;7222;57.346;12.150;2023-01-10T03:51:05;6.40;99.90
14277;DHT22;7222;57.346;12.150;2023-01-10T03:53:33;6.40;99.90
14277;DHT22;7222;57.346;12.150;2023-01-10T03:56:03;6.40;99.90
14277;DHT22;7222;57.346;12.150;2023-01-10T03:58:30;6.40;99.90
14277;DHT22;7222;57.346;12.150;2023-01-10T04:00:57;6.40;99.90
14277;DHT22;7222;57.346;12.150;2023-01-10T04:03:24;6.40;99.90
14277;DHT22;7222;57.346;12.150;2023-01-10T04:05:51;6.40;99.90
14277;DHT22;7222;57.346;12.150;2023-01-10T04:08:19;6.40;99.90
14277;DHT22;7222;57.346;12.150;2023-01-10T04:10:47;6.30;99.90
14277;DHT22;7222;57.346;12.150;2023-01-10T04:13:14;6.40;99.90
14277;DHT22;7222;57.346;12.150;2023-01-10T04:15:42;6.40;99.90
14277;DHT22;7222;57.346;12.150;2023-01-10T04:18:09;6.40;99.90
14277;DHT22;7222;57.346;12.150;2023-01-10T04:20:37;6.40;99.90
14277;DHT22;7222;57.346;12.150;2023-01-10T04:23:04;6.40;99.90
14277;DHT22;7222;57.346;12.150;2023-01-10T04:25:32;6.40;99.90
14277;DHT22;7222;57.346;12.150;2023-01-10T04:27:59;6.40;99.90
14277;DHT22;7222;57.346;12.150;2023-01-10T04:30:27;6.40;99.90
14277;DHT22;7222;57.346;12.150;2023-01-10T04:32:54;6.30;99.90
14277;DHT22;7222;57.346;12.150;2023-01-10T04:35:21;6.40;99.90
14277;DHT22;7222;57.346;12.150;2023-01-10T04:37:48;6.40;99.90
14277;DHT22;7222;57.346;12.150;2023-01-10T04:40:16;6.40;99.90
14277;DHT22;7222;57.346;12.150;2023-01-10T04:42:45;6.40;99.90
14277;DHT22;7222;57.346;12.150;2023-01-10T04:45:12;6.30;99.90
14277;DHT22;7222;57.346;12.150;2023-01-10T04:47:42;6.30;99.90
14277;DHT22;7222;57.346;12.150;2023-01-10T04:50:10;6.30;99.90
14277;DHT22;7222;57.346;12.150;2023-01-10T04:52:37;6.40;99.90
14277;DHT22;7222;57.346;12.150;2023-01-10T04:55:06;6.30;99.90
14277;DHT22;7222;57.346;12.150;2023-01-10T04:57:33;6.30;99.90
14277;DHT22;7222;57.346;12.150;2023-01-10T05:00:02;6.30;99.90
14277;DHT22;7222;57.346;12.150;2023-01-10T05:02:29;6.40;99.90
14277;DHT22;7222;57.346;12.150;2023-01-10T05:04:57;6.40;99.90
14277;DHT22;7222;57.346;12.150;2023-01-10T05:07:24;6.40;99.90
14277;DHT22;7222;57.346;12.150;2023-01-10T05:09:51;6.40;99.90
14277;DHT22;7222;57.346;12.150;2023-01-10T05:12:19;6.40;99.90
14277;DHT22;7222;57.346;12.150;2023-01-10T05:14:46;6.40;99.90
14277;DHT22;7222;57.346;12.150;2023-01-10T05:17:14;6.40;99.90
14277;DHT22;7222;57.346;12.150;2023-01-10T05:19:41;6.40;99.90
14277;DHT22;7222;57.346;12.150;2023-01-10T05:22:08;6.50;99.90
14277;DHT22;7222;57.346;12.150;2023-01-10T05:24:35;6.40;99.90
14277;DHT22;7222;57.346;12.150;2023-01-10T05:27:03;6.40;99.90
14277;DHT22;7222;57.346;12.150;2023-01-10T05:29:30;6.40;99.90
14277;DHT22;7222;57.346;12.150;2023-01-10T05:31:58;6.40;99.90
14277;DHT22;7222;57.346;12.150;2023-01-10T05:34:27;6.30;99.90
14277;DHT22;7222;57.346;12.150;2023-01-10T05:36:54;6.40;99.90
14277;DHT22;7222;57.346;12.150;2023-01-10T05:39:21;6.30;99.90
14277;DHT22;7222;57.346;12.150;2023-01-10T05:41:48;6.30;99.90
14277;DHT22;7222;57.346;12.150;2023-01-10T05:44:15;6.40;99.90
14277;DHT22;7222;57.346;12.150;2023-01-10T05:46:42;6.40;99.90
14277;DHT22;7222;57.346;12.150;2023-01-10T05:49:09;6.30;99.90
14277;DHT22;7222;57.346;12.150;2023-01-10T05:51:38;6.40;99.90
14277;DHT22;7222;57.346;12.150;2023-01-10T05:54:06;6.40;99.90
14277;DHT22;7222;57.346;12.150;2023-01-10T05:56:34;6.40;99.90
14277;DHT22;7222;57.346;12.150;2023-01-10T05:59:01;6.40;99.90
14277;DHT22;7222;57.346;12.150;2023-01-10T06:01:28;6.40;99.90
14277;DHT22;7222;57.346;12.150;2023-01-10T06:03:55;6.40;99.90
14277;DHT22;7222;57.346;12.150;2023-01-10T06:06:22;6.30;99.90
14277;DHT22;7222;57.346;12.150;2023-01-10T06:08:51;6.30;99.90
14277;DHT22;7222;57.346;12.150;2023-01-10T06:11:20;6.30;99.90
14277;DHT22;7222;57.346;12.150;2023-01-10T06:13:53;6.30;99.90
14277;DHT22;7222;57.346;12.150;2023-01-10T06:16:21;6.30;99.90
14277;DHT22;7222;57.346;12.150;2023-01-10T06:18:48;6.30;99.90
14277;DHT22;7222;57.346;12.150;2023-01-10T06:21:15;6.30;99.90
14277;DHT22;7222;57.346;12.150;2023-01-10T06:23:42;6.20;99.90
14277;DHT22;7222;57.346;12.150;2023-01-10T06:26:10;6.30;99.90
14277;DHT22;7222;57.346;12.150;2023-01-10T06:28:38;6.30;99.90
14277;DHT22;7222;57.346;12.150;2023-01-10T06:31:06;6.30;99.90
14277;DHT22;7222;57.346;12.150;2023-01-10T06:33:33;6.40;99.90
14277;DHT22;7222;57.346;12.150;2023-01-10T06:36:01;6.30;99.90
14277;DHT22;7222;57.346;12.150;2023-01-10T06:38:28;6.30;99.90
14277;DHT22;7222;57.346;12.150;2023-01-10T06:40:55;6.30;99.90
14277;DHT22;7222;57.346;12.150;2023-01-10T06:43:24;6.30;99.90
14277;DHT22;7222;57.346;12.150;2023-01-10T06:45:51;6.30;99.90
14277;DHT22;7222;57.346;12.150;2023-01-10T06:48:18;6.30;99.90
14277;DHT22;7222;57.346;12.150;2023-01-10T06:50:45;6.30;99.90
14277;DHT22;7222;57.346;12.150;2023-01-10T06:53:12;6.30;99.90
14277;DHT22;7222;57.346;12.150;2023-01-10T06:55:39;6.30;99.90
14277;DHT22;7222;57.346;12.150;2023-01-10T06:58:07;6.30;99.90
14277;DHT22;7222;57.346;12.150;2023-01-10T07:00:35;6.30;99.90
14277;DHT22;7222;57.346;12.150;2023-01-10T07:03:02;6.30;99.90
14277;DHT22;7222;57.346;12.150;2023-01-10T07:05:32;6.30;99.90
14277;DHT22;7222;57.346;12.150;2023-01-10T07:07:59;6.30;99.90
14277;DHT22;7222;57.346;12.150;2023-01-10T07:10:26;6.30;99.90
14277;DHT22;7222;57.346;12.150;2023-01-10T07:12:54;6.30;99.90
14277;DHT22;7222;57.346;12.150;2023-01-10T07:15:22;6.30;99.90
14277;DHT22;7222;57.346;12.150;2023-01-10T07:17:51;6.30;99.90
14277;DHT22;7222;57.346;12.150;2023-01-10T07:20:18;6.30;99.90
14277;DHT22;7222;57.346;12.150;2023-01-10T07:22:52;6.30;99.90
14277;DHT22;7222;57.346;12.150;2023-01-10T07:25:20;6.30;99.90
14277;DHT22;7222;57.346;12.150;2023-01-10T07:27:47;6.30;99.90
14277;DHT22;7222;57.346;12.150;2023-01-10T07:30:14;6.30;99.90
14277;DHT22;7222;57.346;12.150;2023-01-10T07:32:41;6.30;99.90
14277;DHT22;7222;57.346;12.150;2023-01-10T07:35:11;6.30;99.90
14277;DHT22;7222;57.346;12.150;2023-01-10T07:37:39;6.30;99.90
14277;DHT22;7222;57.346;12.150;2023-01-10T07:40:07;6.30;99.90
14277;DHT22;7222;57.346;12.150;2023-01-10T07:42:35;6.30;99.90
14277;DHT22;7222;57.346;12.150;2023-01-10T07:45:02;6.20;99.90
14277;DHT22;7222;57.346;12.150;2023-01-10T07:47:29;6.30;99.90
14277;DHT22;7222;57.346;12.150;2023-01-10T07:49:56;6.20;99.90
14277;DHT22;7222;57.346;12.150;2023-01-10T07:52:24;6.20;99.90
14277;DHT22;7222;57.346;12.150;2023-01-10T07:54:52;6.30;99.90
14277;DHT22;7222;57.346;12.150;2023-01-10T07:57:19;6.30;99.90
14277;DHT22;7222;57.346;12.150;2023-01-10T07:59:46;6.30;99.90
14277;DHT22;7222;57.346;12.150;2023-01-10T08:02:13;6.30;99.90
14277;DHT22;7222;57.346;12.150;2023-01-10T08:04:40;6.40;99.90
14277;DHT22;7222;57.346;12.150;2023-01-10T08:07:07;6.40;99.90
14277;DHT22;7222;57.346;12.150;2023-01-10T08:09:35;6.30;99.90
14277;DHT22;7222;57.346;12.150;2023-01-10T08:12:02;6.40;99.90
14277;DHT22;7222;57.346;12.150;2023-01-10T08:14:29;6.30;99.90
14277;DHT22;7222;57.346;12.150;2023-01-10T08:16:56;6.30;99.90
14277;DHT22;7222;57.346;12.150;2023-01-10T08:19:23;6.40;99.90
14277;DHT22;7222;57.346;12.150;2023-01-10T08:21:50;6.30;99.90
14277;DHT22;7222;57.346;12.150;2023-01-10T08:24:17;6.30;99.90
14277;DHT22;7222;57.346;12.150;2023-01-10T08:26:46;6.40;99.90
14277;DHT22;7222;57.346;12.150;2023-01-10T08:29:13;6.30;99.90
14277;DHT22;7222;57.346;12.150;2023-01-10T08:31:40;6.40;99.90
14277;DHT22;7222;57.346;12.150;2023-01-10T08:34:07;6.30;99.90
14277;DHT22;7222;57.346;12.150;2023-01-10T08:36:35;6.30;99.90
14277;DHT22;7222;57.346;12.150;2023-01-10T08:39:02;6.30;99.90
14277;DHT22;7222;57.346;12.150;2023-01-10T08:41:29;6.40;99.90
14277;DHT22;7222;57.346;12.150;2023-01-10T08:43:57;6.30;99.90
14277;DHT22;7222;57.346;12.150;2023-01-10T08:46:25;6.40;99.90
14277;DHT22;7222;57.346;12.150;2023-01-10T08:48:52;6.40;99.90
14277;DHT22;7222;57.346;12.150;2023-01-10T08:51:19;6.40;99.90
14277;DHT22;7222;57.346;12.150;2023-01-10T08:53:46;6.40;99.90
14277;DHT22;7222;57.346;12.150;2023-01-10T08:56:13;6.40;99.90
14277;DHT22;7222;57.346;12.150;2023-01-10T08:58:40;6.40;99.90
14277;DHT22;7222;57.346;12.150;2023-01-10T09:01:10;6.40;99.90
14277;DHT22;7222;57.346;12.150;2023-01-10T09:03:38;6.40;99.90
14277;DHT22;7222;57.346;12.150;2023-01-10T09:06:06;6.50;99.90
14277;DHT22;7222;57.346;12.150;2023-01-10T09:08:33;6.50;99.90
14277;DHT22;7222;57.346;12.150;2023-01-10T09:11:01;6.40;99.90
14277;DHT22;7222;57.346;12.150;2023-01-10T09:13:28;6.50;99.90
14277;DHT22;7222;57.346;12.150;2023-01-10T09:15:55;6.50;99.90
14277;DHT22;7222;57.346;12.150;2023-01-10T09:18:25;6.50;99.90
14277;DHT22;7222;57.346;12.150;2023-01-10T09:20:52;6.50;99.90
14277;DHT22;7222;57.346;12.150;2023-01-10T09:23:21;6.60;99.90
14277;DHT22;7222;57.346;12.150;2023-01-10T09:25:51;6.50;99.90
14277;DHT22;7222;57.346;12.150;2023-01-10T09:28:18;6.60;99.90
14277;DHT22;7222;57.346;12.150;2023-01-10T09:30:45;6.60;99.90
14277;DHT22;7222;57.346;12.150;2023-01-10T09:33:13;6.60;99.90
14277;DHT22;7222;57.346;12.150;2023-01-10T09:35:42;6.60;99.90
14277;DHT22;7222;57.346;12.150;2023-01-10T09:38:11;6.60;99.90
14277;DHT22;7222;57.346;12.150;2023-01-10T09:43:58;6.60;99.90
14277;DHT22;7222;57.346;12.150;2023-01-10T09:46:36;6.70;99.90
14277;DHT22;7222;57.346;12.150;2023-01-10T09:49:11;6.60;99.90
14277;DHT22;7222;57.346;12.150;2023-01-10T09:51:45;6.70;99.90
14277;DHT22;7222;57.346;12.150;2023-01-10T09:54:16;6.70;99.90
14277;DHT22;7222;57.346;12.150;2023-01-10T09:56:46;6.70;99.90
14277;DHT22;7222;57.346;12.150;2023-01-10T09:59:16;6.70;99.90
14277;DHT22;7222;57.346;12.150;2023-01-10T10:01:45;6.70;99.90
14277;DHT22;7222;57.346;12.150;2023-01-10T10:04:22;6.70;99.90
14277;DHT22;7222;57.346;12.150;2023-01-10T10:06:52;6.70;99.90
14277;DHT22;7222;57.346;12.150;2023-01-10T10:09:24;6.80;99.90
14277;DHT22;7222;57.346;12.150;2023-01-10T10:12:13;6.80;99.90
14277;DHT22;7222;57.346;12.150;2023-01-10T10:14:51;6.70;99.90
14277;DHT22;7222;57.346;12.150;2023-01-10T10:17:34;6.80;99.90
14277;DHT22;7222;57.346;12.150;2023-01-10T10:20:21;6.70;99.90
14277;DHT22;7222;57.346;12.150;2023-01-10T10:22:56;6.80;99.90
14277;DHT22;7222;57.346;12.150;2023-01-10T10:25:45;6.80;99.90
14277;DHT22;7222;57.346;12.150;2023-01-10T10:28:42;6.70;99.90
14277;DHT22;7222;57.346;12.150;2023-01-10T10:31:14;6.80;99.90
14277;DHT22;7222;57.346;12.150;2023-01-10T10:33:54;6.80;99.90
14277;DHT22;7222;57.346;12.150;2023-01-10T10:36:26;6.80;99.90
14277;DHT22;7222;57.346;12.150;2023-01-10T10:38:59;6.90;99.90
14277;DHT22;7222;57.346;12.150;2023-01-10T10:41:31;6.90;99.90
14277;DHT22;7222;57.346;12.150;2023-01-10T10:44:00;7.00;99.90
14277;DHT22;7222;57.346;12.150;2023-01-10T10:46:30;7.00;99.90
14277;DHT22;7222;57.346;12.150;2023-01-10T10:49:00;7.10;99.90
14277;DHT22;7222;57.346;12.150;2023-01-10T10:51:42;7.10;99.90
14277;DHT22;7222;57.346;12.150;2023-01-10T10:54:13;7.10;99.90
14277;DHT22;7222;57.346;12.150;2023-01-10T10:56:42;7.20;99.90
14277;DHT22;7222;57.346;12.150;2023-01-10T10:59:14;7.20;99.90
14277;DHT22;7222;57.346;12.150;2023-01-10T11:01:44;7.20;99.90
14277;DHT22;7222;57.346;12.150;2023-01-10T11:04:15;7.20;99.90
14277;DHT22;7222;57.346;12.150;2023-01-10T11:06:44;7.20;99.90
14277;DHT22;7222;57.346;12.150;2023-01-10T11:09:17;7.20;99.90
14277;DHT22;7222;57.346;12.150;2023-01-10T11:11:47;7.20;99.90
14277;DHT22;7222;57.346;12.150;2023-01-10T11:14:41;7.20;99.90
14277;DHT22;7222;57.346;12.150;2023-01-10T11:17:17;7.30;99.90
14277;DHT22;7222;57.346;12.150;2023-01-10T11:19:54;7.70;99.90
14277;DHT22;7222;57.346;12.150;2023-01-10T11:22:23;8.00;99.90
14277;DHT22;7222;57.346;12.150;2023-01-10T11:24:54;9.10;99.90
14277;DHT22;7222;57.346;12.150;2023-01-10T11:27:25;10.40;99.90
14277;DHT22;7222;57.346;12.150;2023-01-10T11:29:56;11.10;99.90
14277;DHT22;7222;57.346;12.150;2023-01-10T11:32:31;11.40;99.90
14277;DHT22;7222;57.346;12.150;2023-01-10T11:35:01;11.90;99.90
14277;DHT22;7222;57.346;12.150;2023-01-10T11:37:30;12.10;99.90
14277;DHT22;7222;57.346;12.150;2023-01-10T11:40:15;11.70;99.90
14277;DHT22;7222;57.346;12.150;2023-01-10T11:42:43;11.70;99.90
14277;DHT22;7222;57.346;12.150;2023-01-10T11:45:28;11.90;99.90
14277;DHT22;7222;57.346;12.150;2023-01-10T11:48:04;11.50;99.90
14277;DHT22;7222;57.346;12.150;2023-01-10T11:50:34;11.50;99.90
14277;DHT22;7222;57.346;12.150;2023-01-10T11:53:04;11.40;99.90
14277;DHT22;7222;57.346;12.150;2023-01-10T11:55:35;11.00;99.90
14277;DHT22;7222;57.346;12.150;2023-01-10T11:58:07;10.60;99.90
14277;DHT22;7222;57.346;12.150;2023-01-10T12:00:37;10.40;99.90
14277;DHT22;7222;57.346;12.150;2023-01-10T12:03:21;10.40;99.90
14277;DHT22;7222;57.346;12.150;2023-01-10T12:05:53;10.00;99.90
14277;DHT22;7222;57.346;12.150;2023-01-10T12:08:28;9.70;99.90
14277;DHT22;7222;57.346;12.150;2023-01-10T12:11:00;9.40;99.90
14277;DHT22;7222;57.346;12.150;2023-01-10T12:13:29;8.80;99.90
14277;DHT22;7222;57.346;12.150;2023-01-10T12:16:18;8.20;99.90
14277;DHT22;7222;57.346;12.150;2023-01-10T12:18:46;8.00;99.90
14277;DHT22;7222;57.346;12.150;2023-01-10T12:21:18;7.90;99.90
14277;DHT22;7222;57.346;12.150;2023-01-10T12:23:48;7.90;99.90
14277;DHT22;7222;57.346;12.150;2023-01-10T12:26:17;7.90;99.90
14277;DHT22;7222;57.346;12.150;2023-01-10T12:28:49;7.80;99.90
14277;DHT22;7222;57.346;12.150;2023-01-10T12:31:20;7.70;99.90
14277;DHT22;7222;57.346;12.150;2023-01-10T12:33:52;7.80;99.90
14277;DHT22;7222;57.346;12.150;2023-01-10T12:36:33;7.70;99.90
14277;DHT22;7222;57.346;12.150;2023-01-10T12:39:14;7.70;99.90
14277;DHT22;7222;57.346;12.150;2023-01-10T12:41:52;7.90;99.90
14277;DHT22;7222;57.346;12.150;2023-01-10T12:44:39;8.20;99.90
14277;DHT22;7222;57.346;12.150;2023-01-10T12:47:16;8.40;99.90
14277;DHT22;7222;57.346;12.150;2023-01-10T12:49:49;8.20;99.90
14277;DHT22;7222;57.346;12.150;2023-01-10T12:52:26;8.10;99.90
14277;DHT22;7222;57.346;12.150;2023-01-10T12:54:55;7.90;99.90
14277;DHT22;7222;57.346;12.150;2023-01-10T12:57:27;8.00;99.90
14277;DHT22;7222;57.346;12.150;2023-01-10T12:59:59;7.70;99.90
14277;DHT22;7222;57.346;12.150;2023-01-10T13:02:32;7.60;99.90
14277;DHT22;7222;57.346;12.150;2023-01-10T13:05:02;7.50;99.90
14277;DHT22;7222;57.346;12.150;2023-01-10T13:07:33;7.40;99.90
14277;DHT22;7222;57.346;12.150;2023-01-10T13:10:02;7.40;99.90
14277;DHT22;7222;57.346;12.150;2023-01-10T13:12:34;7.30;99.90
14277;DHT22;7222;57.346;12.150;2023-01-10T13:15:08;7.30;99.90
14277;DHT22;7222;57.346;12.150;2023-01-10T13:17:41;7.30;99.90
14277;DHT22;7222;57.346;12.150;2023-01-10T13:20:26;7.30;99.90
14277;DHT22;7222;57.346;12.150;2023-01-10T13:22:55;7.30;99.90
14277;DHT22;7222;57.346;12.150;2023-01-10T13:25:24;7.30;99.90
14277;DHT22;7222;57.346;12.150;2023-01-10T13:27:57;7.20;99.90
14277;DHT22;7222;57.346;12.150;2023-01-10T13:30:26;7.20;99.90
14277;DHT22;7222;57.346;12.150;2023-01-10T13:33:00;7.10;99.90
14277;DHT22;7222;57.346;12.150;2023-01-10T13:35:36;7.10;99.90
14277;DHT22;7222;57.346;12.150;2023-01-10T13:38:04;7.00;99.90
14277;DHT22;7222;57.346;12.150;2023-01-10T13:40:32;7.00;99.90
14277;DHT22;7222;57.346;12.150;2023-01-10T13:43:28;7.00;99.90
14277;DHT22;7222;57.346;12.150;2023-01-10T13:46:33;7.10;99.90
14277;DHT22;7222;57.346;12.150;2023-01-10T13:49:24;7.10;99.90
14277;DHT22;7222;57.346;12.150;2023-01-10T13:52:24;7.00;99.90
14277;DHT22;7222;57.346;12.150;2023-01-10T13:54:56;7.00;99.90
14277;DHT22;7222;57.346;12.150;2023-01-10T13:57:48;7.00;99.90
14277;DHT22;7222;57.346;12.150;2023-01-10T14:00:50;6.90;99.90
14277;DHT22;7222;57.346;12.150;2023-01-10T14:03:41;6.90;99.90
14277;DHT22;7222;57.346;12.150;2023-01-10T14:06:13;6.80;99.90
14277;DHT22;7222;57.346;12.150;2023-01-10T14:08:48;6.80;99.90
14277;DHT22;7222;57.346;12.150;2023-01-10T14:11:16;6.80;99.90
14277;DHT22;7222;57.346;12.150;2023-01-10T14:13:50;6.80;99.90
14277;DHT22;7222;57.346;12.150;2023-01-10T14:16:30;6.80;99.90
14277;DHT22;7222;57.346;12.150;2023-01-10T14:18:59;6.80;99.90
14277;DHT22;7222;57.346;12.150;2023-01-10T14:21:29;6.80;99.90
14277;DHT22;7222;57.346;12.150;2023-01-10T14:23:57;6.80;99.90
14277;DHT22;7222;57.346;12.150;2023-01-10T14:26:30;6.80;99.90
14277;DHT22;7222;57.346;12.150;2023-01-10T14:28:59;6.80;99.90
14277;DHT22;7222;57.346;12.150;2023-01-10T14:31:26;6.80;99.90
14277;DHT22;7222;57.346;12.150;2023-01-10T14:33:57;6.80;99.90
14277;DHT22;7222;57.346;12.150;2023-01-10T14:36:29;6.70;99.90
14277;DHT22;7222;57.346;12.150;2023-01-10T14:38:59;6.80;99.90
14277;DHT22;7222;57.346;12.150;2023-01-10T14:41:30;6.80;99.90
14277;DHT22;7222;57.346;12.150;2023-01-10T14:44:01;6.80;99.90
14277;DHT22;7222;57.346;12.150;2023-01-10T14:46:33;6.80;99.90
14277;DHT22;7222;57.346;12.150;2023-01-10T14:49:19;6.80;99.90
14277;DHT22;7222;57.346;12.150;2023-01-10T14:51:47;6.80;99.90
14277;DHT22;7222;57.346;12.150;2023-01-10T14:54:16;6.80;99.90
14277;DHT22;7222;57.346;12.150;2023-01-10T14:56:46;6.80;99.90
14277;DHT22;7222;57.346;12.150;2023-01-10T14:59:24;6.80;99.90
14277;DHT22;7222;57.346;12.150;2023-01-10T15:01:54;6.70;99.90
14277;DHT22;7222;57.346;12.150;2023-01-10T15:04:25;6.70;99.90
14277;DHT22;7222;57.346;12.150;2023-01-10T15:06:55;6.70;99.90
14277;DHT22;7222;57.346;12.150;2023-01-10T15:09:22;6.70;99.90
14277;DHT22;7222;57.346;12.150;2023-01-10T15:11:50;6.70;99.90
14277;DHT22;7222;57.346;12.150;2023-01-10T15:14:19;6.60;99.90
14277;DHT22;7222;57.346;12.150;2023-01-10T15:16:48;6.70;99.90
14277;DHT22;7222;57.346;12.150;2023-01-10T15:19:18;6.70;99.90
14277;DHT22;7222;57.346;12.150;2023-01-10T15:21:50;6.60;99.90
14277;DHT22;7222;57.346;12.150;2023-01-10T15:24:31;6.60;99.90
14277;DHT22;7222;57.346;12.150;2023-01-10T15:26:59;6.60;99.90
14277;DHT22;7222;57.346;12.150;2023-01-10T15:29:27;6.70;99.90
14277;DHT22;7222;57.346;12.150;2023-01-10T15:32:03;6.60;99.90
14277;DHT22;7222;57.346;12.150;2023-01-10T15:34:32;6.70;99.90
14277;DHT22;7222;57.346;12.150;2023-01-10T15:37:02;6.70;99.90
14277;DHT22;7222;57.346;12.150;2023-01-10T15:39:30;6.70;99.90
14277;DHT22;7222;57.346;12.150;2023-01-10T15:42:00;6.60;99.90
14277;DHT22;7222;57.346;12.150;2023-01-10T15:44:35;6.60;99.90
14277;DHT22;7222;57.346;12.150;2023-01-10T15:47:03;6.60;99.90
14277;DHT22;7222;57.346;12.150;2023-01-10T15:49:30;6.60;99.90
14277;DHT22;7222;57.346;12.150;2023-01-10T15:51:58;6.60;99.90
14277;DHT22;7222;57.346;12.150;2023-01-10T15:54:30;6.60;99.90
14277;DHT22;7222;57.346;12.150;2023-01-10T15:57:03;6.60;99.90
14277;DHT22;7222;57.346;12.150;2023-01-10T15:59:34;6.60;99.90
14277;DHT22;7222;57.346;12.150;2023-01-10T16:02:15;6.70;99.90
14277;DHT22;7222;57.346;12.150;2023-01-10T16:04:44;6.60;99.90
14277;DHT22;7222;57.346;12.150;2023-01-10T16:07:17;6.70;99.90
14277;DHT22;7222;57.346;12.150;2023-01-10T16:09:53;6.60;99.90
14277;DHT22;7222;57.346;12.150;2023-01-10T16:12:32;6.60;99.90
14277;DHT22;7222;57.346;12.150;2023-01-10T16:15:20;6.60;99.90
14277;DHT22;7222;57.346;12.150;2023-01-10T16:17:49;6.60;99.90